sensor_id;sensor_type;location;lat;lon;timestamp;pressure;altitude;pressure_sealevel;temperature;humidity
68199;BME280;55021;51.554;17.044;2024-01-30T00:01:15;102197.16;;;2.85;77.93
68199;BME280;55021;51.554;17.044;2024-01-30T00:16:24;102204.59;;;3.17;77.00
68199;BME280;55021;51.554;17.044;2024-01-30T00:31:27;102206.81;;;2.89;77.45
68199;BME280;55021;51.554;17.044;2024-01-30T00:46:29;102205.94;;;2.89;77.48
68199;BME280;55021;51.554;17.044;2024-01-30T01:01:31;102215.38;;;2.77;78.80
68199;BME280;55021;51.554;17.044;2024-01-30T01:16:34;102220.09;;;2.91;77.20
68199;BME280;55021;51.554;17.044;2024-01-30T01:31:37;102204.16;;;2.69;78.07
68199;BME280;55021;51.554;17.044;2024-01-30T01:46:47;102198.72;;;2.52;78.61
68199;BME280;55021;51.554;17.044;2024-01-30T02:02:04;102215.63;;;1.92;82.18
68199;BME280;55021;51.554;17.044;2024-01-30T02:17:09;102209.72;;;2.04;81.67
68199;BME280;55021;51.554;17.044;2024-01-30T02:32:12;102203.53;;;1.62;83.74
68199;BME280;55021;51.554;17.044;2024-01-30T02:47:15;102142.91;;;1.19;83.27
68199;BME280;55021;51.554;17.044;2024-01-30T03:02:39;102205.78;;;1.71;82.84
68199;BME280;55021;51.554;17.044;2024-01-30T03:17:42;102178.47;;;1.84;81.77
68199;BME280;55021;51.554;17.044;2024-01-30T03:32:45;102183.81;;;1.84;81.94
68199;BME280;55021;51.554;17.044;2024-01-30T03:47:50;102192.00;;;1.38;84.60
68199;BME280;55021;51.554;17.044;2024-01-30T04:02:52;102183.81;;;1.21;83.13
68199;BME280;55021;51.554;17.044;2024-01-30T04:18:01;102186.03;;;0.87;85.87
68199;BME280;55021;51.554;17.044;2024-01-30T04:48:32;102187.59;;;1.15;84.21
68199;BME280;55021;51.554;17.044;2024-01-30T05:18:50;102191.22;;;0.68;89.50
68199;BME280;55021;51.554;17.044;2024-01-30T05:33:54;102187.88;;;0.13;90.34
68199;BME280;55021;51.554;17.044;2024-01-30T05:48:56;102165.50;;;0.65;86.57
68199;BME280;55021;51.554;17.044;2024-01-30T06:04:07;102200.84;;;0.72;87.68
68199;BME280;55021;51.554;17.044;2024-01-30T06:19:16;102119.47;;;-0.12;88.66
68199;BME280;55021;51.554;17.044;2024-01-30T06:34:40;102229.25;;;0.50;88.85
68199;BME280;55021;51.554;17.044;2024-01-30T06:49:43;102230.25;;;0.70;88.57
68199;BME280;55021;51.554;17.044;2024-01-30T07:04:46;102235.56;;;0.72;88.15
68199;BME280;55021;51.554;17.044;2024-01-30T07:19:48;102149.19;;;0.73;88.01
68199;BME280;55021;51.554;17.044;2024-01-30T07:34:51;102115.31;;;1.62;84.72
68199;BME280;55021;51.554;17.044;2024-01-30T07:49:53;102204.56;;;3.36;80.87
68199;BME280;55021;51.554;17.044;2024-01-30T08:04:56;102126.75;;;3.38;78.38
68199;BME280;55021;51.554;17.044;2024-01-30T08:19:58;102190.00;;;4.46;77.99
68199;BME280;55021;51.554;17.044;2024-01-30T08:35:01;102184.13;;;5.52;74.16
68199;BME280;55021;51.554;17.044;2024-01-30T08:50:03;102177.00;;;6.26;69.96
68199;BME280;55021;51.554;17.044;2024-01-30T09:05:06;102166.75;;;6.75;66.01
68199;BME280;55021;51.554;17.044;2024-01-30T09:20:09;102168.56;;;6.02;69.03
68199;BME280;55021;51.554;17.044;2024-01-30T09:35:11;102152.53;;;6.73;64.43
68199;BME280;55021;51.554;17.044;2024-01-30T09:50:15;102151.47;;;7.71;63.14
68199;BME280;55021;51.554;17.044;2024-01-30T10:05:19;102117.84;;;8.40;57.48
68199;BME280;55021;51.554;17.044;2024-01-30T10:20:21;102123.06;;;9.30;54.97
68199;BME280;55021;51.554;17.044;2024-01-30T10:35:24;102099.09;;;9.13;55.00
68199;BME280;55021;51.554;17.044;2024-01-30T10:50:26;102091.00;;;9.60;52.39
68199;BME280;55021;51.554;17.044;2024-01-30T11:05:29;102084.44;;;9.51;51.39
68199;BME280;55021;51.554;17.044;2024-01-30T11:20:31;102061.19;;;9.95;50.01
68199;BME280;55021;51.554;17.044;2024-01-30T11:35:35;102049.81;;;10.91;48.79
68199;BME280;55021;51.554;17.044;2024-01-30T11:50:38;102031.19;;;10.42;49.48
68199;BME280;55021;51.554;17.044;2024-01-30T12:05:40;102005.19;;;10.40;50.21
68199;BME280;55021;51.554;17.044;2024-01-30T12:20:43;101988.28;;;10.80;50.47
68199;BME280;55021;51.554;17.044;2024-01-30T12:35:47;101971.69;;;11.58;48.04
68199;BME280;55021;51.554;17.044;2024-01-30T12:50:50;101956.25;;;11.79;46.67
68199;BME280;55021;51.554;17.044;2024-01-30T13:05:52;101963.78;;;11.96;45.35
68199;BME280;55021;51.554;17.044;2024-01-30T13:20:54;101952.09;;;12.76;45.01
68199;BME280;55021;51.554;17.044;2024-01-30T13:35:57;101946.19;;;12.00;45.73
68199;BME280;55021;51.554;17.044;2024-01-30T13:50:59;101939.00;;;12.11;46.30
68199;BME280;55021;51.554;17.044;2024-01-30T14:06:02;101907.31;;;12.00;45.50
68199;BME280;55021;51.554;17.044;2024-01-30T14:21:04;101923.00;;;12.17;45.04
68199;BME280;55021;51.554;17.044;2024-01-30T14:36:07;101925.19;;;11.52;47.60
68199;BME280;55021;51.554;17.044;2024-01-30T14:51:12;101922.88;;;10.95;47.93
68199;BME280;55021;51.554;17.044;2024-01-30T15:06:14;101912.75;;;10.43;48.74
68199;BME280;55021;51.554;17.044;2024-01-30T15:21:16;101928.88;;;9.55;52.03
68199;BME280;55021;51.554;17.044;2024-01-30T15:36:19;101938.41;;;9.02;54.02
68199;BME280;55021;51.554;17.044;2024-01-30T15:51:21;101944.88;;;8.52;56.94
68199;BME280;55021;51.554;17.044;2024-01-30T16:06:23;101885.63;;;7.52;59.09
68199;BME280;55021;51.554;17.044;2024-01-30T16:21:26;101948.25;;;7.57;60.85
68199;BME280;55021;51.554;17.044;2024-01-30T16:36:28;101940.44;;;7.27;63.40
68199;BME280;55021;51.554;17.044;2024-01-30T16:51:30;101954.50;;;7.70;62.43
68199;BME280;55021;51.554;17.044;2024-01-30T17:06:33;101964.28;;;6.80;65.17
68199;BME280;55021;51.554;17.044;2024-01-30T17:21:35;101944.97;;;7.00;65.64
68199;BME280;55021;51.554;17.044;2024-01-30T17:36:37;101930.41;;;7.42;62.56
68199;BME280;55021;51.554;17.044;2024-01-30T17:51:40;101858.38;;;7.04;61.77
68199;BME280;55021;51.554;17.044;2024-01-30T18:06:42;101932.56;;;8.00;58.91
68199;BME280;55021;51.554;17.044;2024-01-30T18:21:45;101850.06;;;6.95;60.57
68199;BME280;55021;51.554;17.044;2024-01-30T18:36:48;101939.00;;;7.21;61.56
68199;BME280;55021;51.554;17.044;2024-01-30T18:51:50;101939.38;;;7.03;61.66
68199;BME280;55021;51.554;17.044;2024-01-30T19:06:53;101921.16;;;6.26;64.29
68199;BME280;55021;51.554;17.044;2024-01-30T19:21:55;101933.69;;;6.54;64.21
68199;BME280;55021;51.554;17.044;2024-01-30T19:36:57;101937.19;;;6.28;65.45
68199;BME280;55021;51.554;17.044;2024-01-30T19:52:00;101930.22;;;6.52;64.16
68199;BME280;55021;51.554;17.044;2024-01-30T20:07:02;101955.97;;;6.70;63.83
68199;BME280;55021;51.554;17.044;2024-01-30T20:22:04;101915.59;;;6.15;65.65
68199;BME280;55021;51.554;17.044;2024-01-30T20:37:06;101962.06;;;6.86;64.33
68199;BME280;55021;51.554;17.044;2024-01-30T20:52:09;101962.25;;;6.15;67.11
68199;BME280;55021;51.554;17.044;2024-01-30T21:07:14;101906.09;;;5.95;66.86
68199;BME280;55021;51.554;17.044;2024-01-30T21:22:17;101964.78;;;6.45;66.14
68199;BME280;55021;51.554;17.044;2024-01-30T21:37:20;101961.41;;;6.56;66.63
68199;BME280;55021;51.554;17.044;2024-01-30T21:52:22;101957.91;;;5.99;68.76
68199;BME280;55021;51.554;17.044;2024-01-30T22:07:25;101871.03;;;5.54;68.94
68199;BME280;55021;51.554;17.044;2024-01-30T22:22:27;101963.88;;;5.90;69.96
68199;BME280;55021;51.554;17.044;2024-01-30T22:37:30;101925.09;;;6.21;68.43
68199;BME280;55021;51.554;17.044;2024-01-30T22:52:32;101984.03;;;6.39;68.89
68199;BME280;55021;51.554;17.044;2024-01-30T23:07:35;101992.88;;;6.41;68.36
68199;BME280;55021;51.554;17.044;2024-01-30T23:22:37;101990.78;;;6.32;69.75
68199;BME280;55021;51.554;17.044;2024-01-30T23:37:39;101936.47;;;5.97;69.31
68199;BME280;55021;51.554;17.044;2024-01-30T23:52:42;102001.16;;;6.38;69.81
